CSY8 weather

Natashquan (Lac De L'Avion) Seaplane Base
Quebec, Canada

Public forecast

Using degrees Celsius for public forecast. Weather courtesy of forecast.io.

METAR (pilot weather report)

Closest report is Natashquan Airport, 1.4 nm (2.5 km) W. Retrieved 2019/07/23 00:00 UTC (26 minutes ago):

CYNA 230000Z AUTO 27011KT 9SM CLR 16/10 A2976 RMK SLP078 DENSITY ALT 300FT

TAF (pilot weather forecast)

Closest forecast is Natashquan Airport, 1.4 nm (2.5 km) W. Retrieved 2019/07/22 20:00 UTC (4 hours ago):

TAF CYNA 221938Z 2220/2308 26012G22KT P6SM SCT060 BECMG 2300/2302 26010KT RMK FCST BASED ON AUTO OBS. NXT FCST BY 230200Z